Time;durP1;ratioP1;P1;durP2;ratioP2;P2;SDS_P1;SDS_P2;PMS_P1;PMS_P2;Temp;Humidity;BMP_temperature;BMP_pressure;BME280_temperature;BME280_humidity;BME280_pressure;Samples;Min_cycle;Max_cycle;Signal;HPM_P1;HPM_P2
2022/05/20 00:01:38;;;;;;;;;;;13.00;99.90;;;;;;5075714;28;20623;-62
2022/05/20 00:04:04;;;;;;;;;;;13.10;99.90;;;;;;5074474;28;19920;-62
2022/05/20 00:06:29;;;;;;;;;;;13.00;99.90;;;;;;5071699;28;19994;-62
2022/05/20 00:08:55;;;;;;;;;;;13.00;99.90;;;;;;5075367;28;20384;-62
2022/05/20 00:11:20;;;;;;;;;;;13.00;99.90;;;;;;5068134;28;19932;-62
2022/05/20 00:13:46;;;;;;;;;;;13.00;99.90;;;;;;5073037;28;19965;-62
2022/05/20 00:16:12;;;;;;;;;;;13.00;99.90;;;;;;5078342;28;19977;-62
2022/05/20 00:18:38;;;;;;;;;;;13.00;99.90;;;;;;5082990;28;19920;-62
2022/05/20 00:21:03;;;;;;;;;;;13.10;99.90;;;;;;5082432;28;20002;-62
2022/05/20 00:23:29;;;;;;;;;;;13.10;99.90;;;;;;5083547;28;19924;-62
2022/05/20 00:25:54;;;;;;;;;;;13.10;99.90;;;;;;5078323;28;20423;-62
2022/05/20 00:28:21;;;;;;;;;;;13.10;99.90;;;;;;5084799;28;20319;-62
2022/05/20 00:30:48;;;;;;;;;;;13.10;99.90;;;;;;5072075;28;19954;-62
2022/05/20 00:33:13;;;;;;;;;;;13.20;99.90;;;;;;5075136;28;19927;-62
2022/05/20 00:35:39;;;;;;;;;;;13.20;99.90;;;;;;5069383;28;19928;-62
2022/05/20 00:38:05;;;;;;;;;;;13.30;99.90;;;;;;5074766;28;19921;-62
2022/05/20 00:40:31;;;;;;;;;;;13.30;99.90;;;;;;5080850;28;19950;-62
2022/05/20 00:43:12;;;;;;;;;;;13.30;99.90;;;;;;5075998;28;19943;-62
2022/05/20 00:45:37;;;;;;;;;;;13.30;99.90;;;;;;5069199;28;19920;-62
2022/05/20 00:48:03;;;;;;;;;;;13.20;99.90;;;;;;5080469;28;19942;-62
2022/05/20 00:50:29;;;;;;;;;;;13.20;99.90;;;;;;5069002;28;20019;-62
2022/05/20 00:52:54;;;;;;;;;;;13.20;99.90;;;;;;5069504;28;20011;-62
2022/05/20 00:55:21;;;;;;;;;;;13.20;99.90;;;;;;5072058;28;20319;-62
2022/05/20 00:57:50;;;;;;;;;;;13.30;99.90;;;;;;5075847;28;19952;-62
2022/05/20 01:00:17;;;;;;;;;;;13.20;99.90;;;;;;5079103;28;19924;-62
2022/05/20 01:02:43;;;;;;;;;;;13.20;99.90;;;;;;5079336;28;19960;-62
2022/05/20 01:05:17;;;;;;;;;;;13.20;99.90;;;;;;5070688;28;19924;-62
2022/05/20 01:07:44;;;;;;;;;;;13.10;99.90;;;;;;5080749;28;19942;-62
2022/05/20 01:10:09;;;;;;;;;;;13.10;99.90;;;;;;5072713;28;19924;-62
2022/05/20 01:12:35;;;;;;;;;;;13.10;99.90;;;;;;5080100;28;20277;-62
2022/05/20 01:15:02;;;;;;;;;;;13.20;99.90;;;;;;5076267;28;19926;-62
2022/05/20 01:17:28;;;;;;;;;;;13.20;99.90;;;;;;5071890;28;19927;-62
2022/05/20 01:19:54;;;;;;;;;;;13.20;99.90;;;;;;5076268;28;19920;-62
2022/05/20 01:22:30;;;;;;;;;;;13.20;99.90;;;;;;5077095;28;20008;-62
2022/05/20 01:24:55;;;;;;;;;;;13.20;99.90;;;;;;5068457;28;19931;-62
2022/05/20 01:27:21;;;;;;;;;;;13.20;99.90;;;;;;5084352;28;20621;-62
2022/05/20 01:29:46;;;;;;;;;;;13.30;99.90;;;;;;5076637;28;19928;-62
2022/05/20 01:32:12;;;;;;;;;;;13.20;99.90;;;;;;5078845;28;20376;-62
2022/05/20 01:34:37;;;;;;;;;;;13.10;99.90;;;;;;5081560;28;19966;-62
2022/05/20 01:37:03;;;;;;;;;;;13.10;99.90;;;;;;5080042;28;19920;-62
2022/05/20 01:39:28;;;;;;;;;;;13.00;99.90;;;;;;5075359;28;19943;-62
2022/05/20 01:42:08;;;;;;;;;;;13.00;99.90;;;;;;5076887;28;19997;-62
2022/05/20 01:44:40;;;;;;;;;;;12.90;99.90;;;;;;5079042;28;19924;-62
2022/05/20 01:47:12;;;;;;;;;;;12.70;99.90;;;;;;5078183;28;20383;-62
2022/05/20 01:49:45;;;;;;;;;;;12.70;99.90;;;;;;5081505;28;19925;-62
2022/05/20 01:52:29;;;;;;;;;;;12.60;99.90;;;;;;5075891;28;20390;-62
2022/05/20 01:54:59;;;;;;;;;;;12.50;99.90;;;;;;5073727;28;19931;-62
2022/05/20 01:57:31;;;;;;;;;;;12.40;99.90;;;;;;5081413;28;20055;-62
2022/05/20 02:00:03;;;;;;;;;;;12.30;99.90;;;;;;5071292;28;19939;-62
2022/05/20 02:02:31;;;;;;;;;;;12.30;99.90;;;;;;5080983;28;19927;-62
2022/05/20 02:05:02;;;;;;;;;;;12.20;99.90;;;;;;5083577;28;19966;-62
2022/05/20 02:07:30;;;;;;;;;;;12.10;99.90;;;;;;5071900;28;19956;-62
2022/05/20 02:10:05;;;;;;;;;;;12.00;99.90;;;;;;5071469;28;19940;-62
2022/05/20 02:12:34;;;;;;;;;;;12.00;99.90;;;;;;5073463;28;19959;-62
2022/05/20 02:15:03;;;;;;;;;;;11.90;99.90;;;;;;5085013;28;19931;-62
2022/05/20 02:17:34;;;;;;;;;;;11.80;99.90;;;;;;5084145;28;19967;-62
2022/05/20 02:20:11;;;;;;;;;;;11.80;99.90;;;;;;5088946;28;19924;-62
2022/05/20 02:22:43;;;;;;;;;;;11.80;99.90;;;;;;5082518;28;19928;-62
2022/05/20 02:25:11;;;;;;;;;;;11.80;99.90;;;;;;5078262;28;19967;-62
2022/05/20 02:27:39;;;;;;;;;;;11.70;99.90;;;;;;5080179;28;19927;-62
2022/05/20 02:30:09;;;;;;;;;;;11.80;99.90;;;;;;5080328;28;19925;-62
2022/05/20 02:32:43;;;;;;;;;;;11.70;99.90;;;;;;5084670;28;20360;-62
2022/05/20 02:35:09;;;;;;;;;;;11.70;99.90;;;;;;5077997;28;19951;-62
2022/05/20 02:37:36;;;;;;;;;;;11.60;99.90;;;;;;5078429;28;19928;-62
2022/05/20 02:40:02;;;;;;;;;;;11.60;99.90;;;;;;5088075;28;19924;-62
2022/05/20 02:42:28;;;;;;;;;;;11.50;99.90;;;;;;5071310;28;19976;-62
2022/05/20 02:44:54;;;;;;;;;;;11.40;99.90;;;;;;5079375;28;19963;-62
2022/05/20 02:47:20;;;;;;;;;;;11.40;99.90;;;;;;5075263;28;19920;-62
2022/05/20 02:49:45;;;;;;;;;;;11.30;99.90;;;;;;5077554;28;20422;-62
2022/05/20 02:52:11;;;;;;;;;;;11.30;99.90;;;;;;5075103;28;19928;-62
2022/05/20 02:54:36;;;;;;;;;;;11.30;99.90;;;;;;5075863;28;19932;-62
2022/05/20 02:57:03;;;;;;;;;;;11.30;99.90;;;;;;5071289;28;19920;-62
2022/05/20 03:04:56;;;;;;;;;;;11.30;99.90;;;;;;5083151;28;19927;-62
2022/05/20 03:07:22;;;;;;;;;;;11.20;99.90;;;;;;5076068;28;19928;-62
2022/05/20 03:09:47;;;;;;;;;;;11.20;99.90;;;;;;5084324;28;20023;-62
2022/05/20 03:12:13;;;;;;;;;;;11.10;99.90;;;;;;5079382;28;19924;-62
2022/05/20 03:14:39;;;;;;;;;;;11.10;99.90;;;;;;5081620;28;19920;-62
2022/05/20 03:17:06;;;;;;;;;;;11.10;99.90;;;;;;5083188;28;20391;-62
2022/05/20 03:19:31;;;;;;;;;;;11.10;99.90;;;;;;5086987;28;19920;-62
2022/05/20 03:21:57;;;;;;;;;;;11.10;99.90;;;;;;5075196;28;19928;-62
2022/05/20 03:24:23;;;;;;;;;;;11.10;99.90;;;;;;5074355;28;19924;-62
2022/05/20 03:26:49;;;;;;;;;;;11.00;99.90;;;;;;5075530;28;19966;-62
2022/05/20 03:29:14;;;;;;;;;;;10.90;99.90;;;;;;5069331;28;20068;-62
2022/05/20 03:31:40;;;;;;;;;;;10.80;99.90;;;;;;5070645;28;19924;-62
2022/05/20 03:34:06;;;;;;;;;;;10.70;99.90;;;;;;5078796;28;20398;-62
2022/05/20 03:36:35;;;;;;;;;;;10.70;99.90;;;;;;5070519;28;19927;-62
2022/05/20 03:39:01;;;;;;;;;;;10.60;99.90;;;;;;5073763;28;19927;-61
2022/05/20 03:41:27;;;;;;;;;;;10.60;99.90;;;;;;5078908;28;19924;-62
2022/05/20 03:43:52;;;;;;;;;;;10.50;99.90;;;;;;5081311;28;19942;-61
2022/05/20 03:46:18;;;;;;;;;;;10.50;99.90;;;;;;5072278;28;19927;-62
2022/05/20 03:48:43;;;;;;;;;;;10.40;99.90;;;;;;5078436;28;20355;-61
2022/05/20 03:51:09;;;;;;;;;;;10.40;99.90;;;;;;5084274;28;19920;-61
2022/05/20 03:53:35;;;;;;;;;;;10.50;99.90;;;;;;5069422;28;19982;-62
2022/05/20 03:56:01;;;;;;;;;;;10.50;99.90;;;;;;5081655;28;19932;-62
2022/05/20 03:58:26;;;;;;;;;;;10.50;99.90;;;;;;5075012;28;19924;-62
2022/05/20 04:03:40;;;;;;;;;;;10.50;99.90;;;;;;5074047;28;19939;-62
2022/05/20 04:06:05;;;;;;;;;;;10.40;99.90;;;;;;5078158;28;19928;-62
2022/05/20 04:08:31;;;;;;;;;;;10.40;99.90;;;;;;5071491;28;20395;-62
2022/05/20 04:10:56;;;;;;;;;;;10.50;99.90;;;;;;5080906;28;20026;-62
2022/05/20 04:13:22;;;;;;;;;;;10.50;99.90;;;;;;5071396;28;19924;-61
2022/05/20 04:15:47;;;;;;;;;;;10.60;99.90;;;;;;5079195;28;19924;-62
2022/05/20 04:18:12;;;;;;;;;;;10.70;99.90;;;;;;5076088;28;19924;-62
2022/05/20 04:20:38;;;;;;;;;;;10.90;99.90;;;;;;5078802;28;19961;-62
2022/05/20 04:23:03;;;;;;;;;;;11.00;99.90;;;;;;5069136;28;19920;-62
2022/05/20 04:25:29;;;;;;;;;;;11.20;99.90;;;;;;5080194;28;20168;-61
2022/05/20 04:27:54;;;;;;;;;;;11.20;99.90;;;;;;5084952;28;19924;-61
2022/05/20 04:30:20;;;;;;;;;;;11.40;99.90;;;;;;5078554;28;19927;-62
2022/05/20 04:32:45;;;;;;;;;;;11.50;99.90;;;;;;5074042;28;19935;-62
2022/05/20 04:35:11;;;;;;;;;;;11.60;99.90;;;;;;5073749;28;20291;-62
2022/05/20 04:37:36;;;;;;;;;;;11.60;99.90;;;;;;5069071;28;19968;-62
2022/05/20 04:40:02;;;;;;;;;;;11.70;99.90;;;;;;5070226;28;19928;-62
2022/05/20 04:47:56;;;;;;;;;;;11.60;99.90;;;;;;5069790;28;20019;-62
2022/05/20 04:50:21;;;;;;;;;;;11.60;99.90;;;;;;5078246;28;20326;-62
2022/05/20 04:52:47;;;;;;;;;;;11.60;99.90;;;;;;5084114;28;19920;-62
2022/05/20 04:55:12;;;;;;;;;;;11.50;99.90;;;;;;5098165;28;19924;-62
2022/05/20 04:57:41;;;;;;;;;;;11.40;99.90;;;;;;5076508;28;20011;-61
2022/05/20 05:00:12;;;;;;;;;;;11.30;99.90;;;;;;5084797;28;19924;-62
2022/05/20 05:02:38;;;;;;;;;;;11.20;99.90;;;;;;5073657;28;20368;-61
2022/05/20 05:05:04;;;;;;;;;;;11.20;99.90;;;;;;5075440;28;19927;-62
2022/05/20 05:07:30;;;;;;;;;;;11.30;99.90;;;;;;5078535;28;20284;-62
2022/05/20 05:09:55;;;;;;;;;;;11.40;99.90;;;;;;5091782;28;19931;-62
2022/05/20 05:12:22;;;;;;;;;;;11.60;99.90;;;;;;5091599;28;19920;-62
2022/05/20 05:14:51;;;;;;;;;;;11.80;99.90;;;;;;5086982;28;19923;-62
2022/05/20 05:18:09;;;;;;;;;;;12.00;99.90;;;;;;5081914;28;20341;-62
2022/05/20 05:20:04;;;;;;;;;;;12.10;99.90;;;;;;5074502;28;20261;-62
2022/05/20 05:22:30;;;;;;;;;;;12.30;99.90;;;;;;5086766;28;20394;-62
2022/05/20 05:24:55;;;;;;;;;;;12.50;99.90;;;;;;5090406;28;19928;-63
2022/05/20 05:27:21;;;;;;;;;;;12.60;99.90;;;;;;5083550;28;20022;-63
2022/05/20 05:29:46;;;;;;;;;;;12.70;99.90;;;;;;5081919;28;22282;-63
2022/05/20 05:32:11;;;;;;;;;;;12.90;99.90;;;;;;5097042;28;20287;-63
2022/05/20 05:34:37;;;;;;;;;;;13.10;99.90;;;;;;5084865;28;19924;-63
2022/05/20 05:37:02;;;;;;;;;;;13.10;99.90;;;;;;5083216;28;19963;-63
2022/05/20 05:39:28;;;;;;;;;;;13.30;99.90;;;;;;5091195;28;19923;-63
2022/05/20 05:41:53;;;;;;;;;;;13.40;99.90;;;;;;5083519;28;19920;-64
2022/05/20 05:44:19;;;;;;;;;;;13.50;99.90;;;;;;5085713;28;19928;-64
2022/05/20 05:46:44;;;;;;;;;;;13.40;99.90;;;;;;5083004;28;20269;-63
2022/05/20 05:49:10;;;;;;;;;;;13.50;99.90;;;;;;5091885;28;19920;-63
2022/05/20 05:51:36;;;;;;;;;;;13.70;99.90;;;;;;5091280;28;19928;-63
2022/05/20 05:54:01;;;;;;;;;;;13.90;99.90;;;;;;5094752;28;19962;-64
2022/05/20 05:56:26;;;;;;;;;;;13.90;99.90;;;;;;5090920;28;19924;-64
2022/05/20 05:58:52;;;;;;;;;;;14.00;99.90;;;;;;5091451;28;19920;-64
2022/05/20 06:01:17;;;;;;;;;;;14.10;99.90;;;;;;5077460;28;20364;-63
2022/05/20 06:03:43;;;;;;;;;;;14.40;99.90;;;;;;5074166;28;19956;-63
2022/05/20 06:06:08;;;;;;;;;;;14.60;99.90;;;;;;5067638;28;19973;-63
2022/05/20 06:08:34;;;;;;;;;;;14.70;99.90;;;;;;5075516;28;20050;-63
2022/05/20 06:10:59;;;;;;;;;;;14.80;99.90;;;;;;5077740;28;19920;-63
2022/05/20 06:13:26;;;;;;;;;;;14.90;99.90;;;;;;5078185;28;19932;-64
2022/05/20 06:15:55;;;;;;;;;;;14.90;97.60;;;;;;5084244;28;20426;-64
2022/05/20 06:18:21;;;;;;;;;;;15.10;97.30;;;;;;5092131;28;19966;-65
2022/05/20 06:20:47;;;;;;;;;;;15.00;98.40;;;;;;5081992;28;19928;-63
2022/05/20 06:23:12;;;;;;;;;;;15.10;98.00;;;;;;5084556;28;19924;-65
2022/05/20 06:25:38;;;;;;;;;;;15.00;95.60;;;;;;5074087;28;19920;-65
2022/05/20 06:28:08;;;;;;;;;;;15.00;97.70;;;;;;5071921;28;19951;-64
2022/05/20 06:30:34;;;;;;;;;;;15.10;98.30;;;;;;5077754;28;19928;-63
2022/05/20 06:33:00;;;;;;;;;;;14.90;97.80;;;;;;5075504;28;20360;-64
2022/05/20 06:40:55;;;;;;;;;;;14.90;97.20;;;;;;5082035;28;19950;-64
2022/05/20 06:43:21;;;;;;;;;;;15.00;95.80;;;;;;5095215;28;20308;-64
2022/05/20 06:45:48;;;;;;;;;;;14.80;97.00;;;;;;5088911;28;19999;-64
2022/05/20 06:48:13;;;;;;;;;;;14.70;95.20;;;;;;5082791;28;20364;-65
2022/05/20 06:50:39;;;;;;;;;;;14.70;94.50;;;;;;5078807;28;19938;-64
2022/05/20 06:53:06;;;;;;;;;;;14.90;95.40;;;;;;5092903;28;20448;-64
2022/05/20 06:55:31;;;;;;;;;;;15.20;96.50;;;;;;5093741;28;19930;-65
2022/05/20 06:57:57;;;;;;;;;;;15.20;94.10;;;;;;5091733;28;20355;-64
2022/05/20 07:00:22;;;;;;;;;;;15.70;96.40;;;;;;5093680;28;19931;-65
2022/05/20 07:02:48;;;;;;;;;;;15.90;94.00;;;;;;5084342;28;20367;-64
2022/05/20 07:05:13;;;;;;;;;;;16.30;93.00;;;;;;5082056;28;19970;-65
2022/05/20 07:07:39;;;;;;;;;;;16.10;89.30;;;;;;5094396;28;19920;-66
2022/05/20 07:10:05;;;;;;;;;;;16.10;90.50;;;;;;5090477;28;19924;-65
2022/05/20 07:12:31;;;;;;;;;;;15.90;87.80;;;;;;5091274;28;20007;-65
2022/05/20 07:14:57;;;;;;;;;;;16.50;90.40;;;;;;5090674;28;20043;-64
2022/05/20 07:17:22;;;;;;;;;;;17.10;90.10;;;;;;5088941;28;19919;-65
2022/05/20 07:19:50;;;;;;;;;;;17.60;88.10;;;;;;5085525;28;20342;-65
2022/05/20 07:22:15;;;;;;;;;;;17.50;86.50;;;;;;5091525;28;20129;-65
2022/05/20 07:24:43;;;;;;;;;;;17.80;81.80;;;;;;5090324;28;20653;-67
2022/05/20 07:27:08;;;;;;;;;;;17.50;80.70;;;;;;5092063;28;19973;-66
2022/05/20 07:29:34;;;;;;;;;;;17.20;80.50;;;;;;5092570;28;19928;-63
2022/05/20 07:31:59;;;;;;;;;;;17.50;81.50;;;;;;5077105;28;19931;-64
2022/05/20 07:34:26;;;;;;;;;;;17.70;79.20;;;;;;5089056;28;19924;-67
2022/05/20 07:36:51;;;;;;;;;;;17.30;79.20;;;;;;5091249;28;19943;-67
2022/05/20 07:39:16;;;;;;;;;;;16.70;78.90;;;;;;5091183;28;19924;-65
2022/05/20 07:41:42;;;;;;;;;;;17.00;85.90;;;;;;5080602;28;19924;-65
2022/05/20 07:44:07;;;;;;;;;;;17.10;85.30;;;;;;5084056;28;19920;-65
2022/05/20 07:46:33;;;;;;;;;;;17.20;82.70;;;;;;5074370;28;20384;-65
2022/05/20 07:48:58;;;;;;;;;;;17.40;82.10;;;;;;5078356;28;19935;-65
2022/05/20 07:51:26;;;;;;;;;;;17.10;79.80;;;;;;5072131;28;20334;-65
2022/05/20 07:53:56;;;;;;;;;;;17.10;84.10;;;;;;5078384;28;19927;-64
2022/05/20 07:56:26;;;;;;;;;;;17.40;79.00;;;;;;5078264;28;20380;-65
2022/05/20 07:59:05;;;;;;;;;;;17.70;78.50;;;;;;5085370;28;19926;-67
2022/05/20 08:01:32;;;;;;;;;;;17.70;76.00;;;;;;5089460;28;19931;-65
2022/05/20 08:06:44;;;;;;;;;;;18.60;77.90;;;;;;5084802;28;19950;-64
2022/05/20 08:09:09;;;;;;;;;;;18.90;75.60;;;;;;5092339;28;20003;-65
2022/05/20 08:11:35;;;;;;;;;;;19.40;73.50;;;;;;5088593;28;20470;-65
2022/05/20 08:14:00;;;;;;;;;;;19.50;69.50;;;;;;5072228;28;20035;-65
2022/05/20 08:16:26;;;;;;;;;;;19.40;71.70;;;;;;5070963;28;20009;-65
2022/05/20 08:18:52;;;;;;;;;;;19.70;74.20;;;;;;5070305;28;19921;-64
2022/05/20 08:21:17;;;;;;;;;;;19.60;70.30;;;;;;5077878;28;19932;-65
2022/05/20 08:23:44;;;;;;;;;;;19.90;72.00;;;;;;5073024;28;19926;-65
2022/05/20 08:26:09;;;;;;;;;;;20.30;68.80;;;;;;5087365;28;19935;-65
2022/05/20 08:28:35;;;;;;;;;;;20.40;72.20;;;;;;5091444;28;19924;-66
2022/05/20 08:31:00;;;;;;;;;;;20.50;66.70;;;;;;5085041;28;19924;-65
2022/05/20 08:33:26;;;;;;;;;;;20.40;67.20;;;;;;5092845;28;19931;-65
2022/05/20 08:35:51;;;;;;;;;;;20.10;68.30;;;;;;5081025;28;19928;-65
2022/05/20 08:38:17;;;;;;;;;;;20.30;69.50;;;;;;5077930;28;19927;-65
2022/05/20 08:40:47;;;;;;;;;;;20.30;65.00;;;;;;5088770;28;19969;-65
2022/05/20 08:43:12;;;;;;;;;;;20.30;67.60;;;;;;5083940;28;19924;-65
2022/05/20 08:45:38;;;;;;;;;;;20.50;70.00;;;;;;5081413;28;19942;-66
2022/05/20 08:48:04;;;;;;;;;;;20.40;63.90;;;;;;5079720;28;19968;-65
2022/05/20 08:50:30;;;;;;;;;;;20.20;67.80;;;;;;5078991;28;19924;-65
2022/05/20 08:52:56;;;;;;;;;;;20.00;66.50;;;;;;5087355;28;19985;-65
2022/05/20 08:55:22;;;;;;;;;;;20.00;68.70;;;;;;5070238;28;19985;-65
2022/05/20 08:57:49;;;;;;;;;;;20.20;69.50;;;;;;5083839;28;19920;-65
2022/05/20 09:00:15;;;;;;;;;;;20.60;66.90;;;;;;5088677;28;19927;-65
2022/05/20 09:02:41;;;;;;;;;;;21.30;64.60;;;;;;5078922;28;19927;-65
2022/05/20 09:05:22;;;;;;;;;;;21.60;64.60;;;;;;5085025;28;19921;-65
2022/05/20 09:08:02;;;;;;;;;;;21.90;62.80;;;;;;5091809;28;19962;-65
2022/05/20 09:10:29;;;;;;;;;;;21.50;60.80;;;;;;5090813;28;19927;-66
2022/05/20 09:13:04;;;;;;;;;;;21.20;61.70;;;;;;5089001;28;19934;-64
2022/05/20 09:15:45;;;;;;;;;;;21.00;66.70;;;;;;5079454;28;19924;-65
2022/05/20 09:18:11;;;;;;;;;;;21.10;62.70;;;;;;5091345;28;19920;-66
2022/05/20 09:20:44;;;;;;;;;;;20.90;61.90;;;;;;5069863;28;19931;-66
2022/05/20 09:23:10;;;;;;;;;;;21.20;61.40;;;;;;5073917;28;19983;-67
2022/05/20 09:25:44;;;;;;;;;;;21.40;58.80;;;;;;5082968;28;19938;-66
2022/05/20 09:28:32;;;;;;;;;;;21.70;62.00;;;;;;5090422;28;19923;-66
2022/05/20 09:31:04;;;;;;;;;;;22.30;61.60;;;;;;5072270;28;20015;-65
2022/05/20 09:33:31;;;;;;;;;;;22.80;57.90;;;;;;5083852;28;19924;-66
2022/05/20 09:35:58;;;;;;;;;;;23.10;55.20;;;;;;5089276;28;19930;-66
2022/05/20 09:38:35;;;;;;;;;;;23.30;57.20;;;;;;5085886;28;20015;-66
2022/05/20 09:41:20;;;;;;;;;;;23.70;57.40;;;;;;5088370;28;19985;-66
2022/05/20 09:43:51;;;;;;;;;;;23.90;55.50;;;;;;5084925;28;20256;-65
2022/05/20 09:46:28;;;;;;;;;;;24.00;53.00;;;;;;5088524;28;19920;-66
2022/05/20 09:49:13;;;;;;;;;;;23.80;54.40;;;;;;5079805;28;19924;-65
2022/05/20 09:51:48;;;;;;;;;;;23.80;51.60;;;;;;5095362;28;19920;-65
2022/05/20 09:54:20;;;;;;;;;;;23.50;53.40;;;;;;5093343;28;19932;-66
2022/05/20 09:56:56;;;;;;;;;;;23.10;51.40;;;;;;5087360;28;20265;-65
2022/05/20 09:59:26;;;;;;;;;;;22.80;54.70;;;;;;5082167;28;20485;-67
2022/05/20 10:02:06;;;;;;;;;;;22.10;54.00;;;;;;5087062;28;19928;-66
2022/05/20 10:04:36;;;;;;;;;;;22.20;54.20;;;;;;5087074;28;19924;-66
2022/05/20 10:07:03;;;;;;;;;;;21.70;57.50;;;;;;5080797;28;19928;-66
2022/05/20 10:09:38;;;;;;;;;;;21.70;56.90;;;;;;5076948;28;19969;-65
2022/05/20 10:12:26;;;;;;;;;;;21.60;57.00;;;;;;5079232;28;19924;-65
2022/05/20 10:15:12;;;;;;;;;;;21.40;56.00;;;;;;5073254;28;19924;-65
2022/05/20 10:17:52;;;;;;;;;;;21.40;56.60;;;;;;5073634;28;19920;-65
2022/05/20 10:20:20;;;;;;;;;;;21.10;58.20;;;;;;5074768;28;20007;-65
2022/05/20 10:22:46;;;;;;;;;;;21.10;58.70;;;;;;5071839;28;19928;-65
2022/05/20 10:25:23;;;;;;;;;;;21.10;57.00;;;;;;5074095;28;19935;-65
2022/05/20 10:27:57;;;;;;;;;;;21.20;58.30;;;;;;5072073;28;19920;-65
2022/05/20 10:33:15;;;;;;;;;;;22.10;55.10;;;;;;5090813;28;19931;-65
2022/05/20 10:35:48;;;;;;;;;;;22.10;52.90;;;;;;5094800;28;20010;-65
2022/05/20 10:38:18;;;;;;;;;;;22.00;52.00;;;;;;5091669;28;19924;-64
2022/05/20 10:40:55;;;;;;;;;;;22.20;54.90;;;;;;5090878;28;20413;-66
2022/05/20 10:43:26;;;;;;;;;;;22.50;53.30;;;;;;5080047;28;19925;-65
2022/05/20 10:48:58;;;;;;;;;;;22.50;55.10;;;;;;5084461;28;20049;-65
2022/05/20 10:51:26;;;;;;;;;;;22.40;53.80;;;;;;5093237;28;20391;-66
2022/05/20 10:53:54;;;;;;;;;;;22.20;53.70;;;;;;5075534;28;20321;-64
2022/05/20 10:56:29;;;;;;;;;;;22.10;54.10;;;;;;5092244;28;19971;-65
2022/05/20 10:59:00;;;;;;;;;;;22.10;54.30;;;;;;5079844;28;19921;-65
2022/05/20 11:01:44;;;;;;;;;;;22.00;54.50;;;;;;5077258;28;19933;-65
2022/05/20 11:04:29;;;;;;;;;;;21.70;52.40;;;;;;5088978;28;19927;-65
2022/05/20 11:07:06;;;;;;;;;;;21.60;55.10;;;;;;5080868;28;19920;-65
2022/05/20 11:09:40;;;;;;;;;;;21.50;53.80;;;;;;5086574;28;19920;-65
2022/05/20 11:12:10;;;;;;;;;;;21.80;56.00;;;;;;5090944;28;19924;-65
2022/05/20 11:14:36;;;;;;;;;;;21.70;55.00;;;;;;5084373;28;19924;-65
2022/05/20 11:17:07;;;;;;;;;;;21.80;56.50;;;;;;5075103;28;20277;-64
2022/05/20 11:19:45;;;;;;;;;;;21.90;52.00;;;;;;5074304;28;19920;-66
2022/05/20 11:22:19;;;;;;;;;;;21.60;51.60;;;;;;5088283;28;19932;-67
2022/05/20 11:24:44;;;;;;;;;;;21.60;54.30;;;;;;5081060;28;19924;-65
2022/05/20 11:27:26;;;;;;;;;;;21.60;52.10;;;;;;5083472;28;20368;-66
2022/05/20 11:29:53;;;;;;;;;;;21.60;50.90;;;;;;5080016;28;19920;-66
2022/05/20 11:32:28;;;;;;;;;;;21.70;52.20;;;;;;5083283;28;19924;-65
2022/05/20 11:35:05;;;;;;;;;;;21.70;52.60;;;;;;5085869;28;19920;-65
2022/05/20 11:37:49;;;;;;;;;;;21.90;53.70;;;;;;5089436;28;19994;-66
2022/05/20 11:40:18;;;;;;;;;;;21.70;54.00;;;;;;5074728;28;20386;-65
2022/05/20 11:42:43;;;;;;;;;;;21.90;54.00;;;;;;5087381;28;19970;-65
2022/05/20 11:45:17;;;;;;;;;;;21.90;51.40;;;;;;5090904;28;19967;-65
2022/05/20 11:47:51;;;;;;;;;;;22.00;52.10;;;;;;5085109;28;20018;-65
2022/05/20 11:50:26;;;;;;;;;;;22.20;49.70;;;;;;5088730;28;20318;-66
2022/05/20 11:53:13;;;;;;;;;;;22.40;45.00;;;;;;5081830;28;20347;-66
2022/05/20 11:55:47;;;;;;;;;;;22.30;47.30;;;;;;5088268;28;20002;-66
2022/05/20 11:58:17;;;;;;;;;;;22.20;46.50;;;;;;5073252;28;19963;-66
2022/05/20 12:00:43;;;;;;;;;;;22.20;48.40;;;;;;5086589;28;19935;-65
2022/05/20 12:03:16;;;;;;;;;;;22.30;47.00;;;;;;5080072;28;20347;-66
2022/05/20 12:05:44;;;;;;;;;;;22.30;46.70;;;;;;5084312;28;20299;-65
2022/05/20 12:08:29;;;;;;;;;;;22.30;46.50;;;;;;5092307;28;19990;-64
2022/05/20 12:10:55;;;;;;;;;;;22.50;48.60;;;;;;5084127;28;19927;-66
2022/05/20 12:13:26;;;;;;;;;;;22.60;46.80;;;;;;5071693;28;19920;-65
2022/05/20 12:16:07;;;;;;;;;;;22.50;46.10;;;;;;5073803;28;20007;-67
2022/05/20 12:24:25;;;;;;;;;;;22.20;49.50;;;;;;5076537;28;19931;-65
2022/05/20 12:26:52;;;;;;;;;;;21.90;50.70;;;;;;5070610;28;19921;-65
2022/05/20 12:29:45;;;;;;;;;;;21.80;52.70;;;;;;5072144;28;20527;-65
2022/05/20 12:32:17;;;;;;;;;;;21.70;50.50;;;;;;5084635;28;19942;-65
2022/05/20 12:34:52;;;;;;;;;;;22.00;50.80;;;;;;5087003;28;20283;-65
2022/05/20 12:37:36;;;;;;;;;;;22.00;49.30;;;;;;5071940;28;19946;-66
2022/05/20 12:40:02;;;;;;;;;;;22.20;51.00;;;;;;5089072;28;20023;-66
2022/05/20 12:42:39;;;;;;;;;;;22.50;50.10;;;;;;5084338;28;20049;-64
2022/05/20 12:45:06;;;;;;;;;;;22.50;49.30;;;;;;5074385;28;19924;-66
2022/05/20 12:47:32;;;;;;;;;;;22.60;43.20;;;;;;5078622;28;19998;-66
2022/05/20 12:50:15;;;;;;;;;;;22.50;44.90;;;;;;5078860;28;19955;-65
2022/05/20 12:52:46;;;;;;;;;;;22.20;46.10;;;;;;5078533;28;19997;-65
2022/05/20 12:55:15;;;;;;;;;;;22.10;47.90;;;;;;5084997;28;19930;-67
2022/05/20 12:57:49;;;;;;;;;;;21.80;47.90;;;;;;5100430;28;19966;-65
2022/05/20 13:00:15;;;;;;;;;;;21.50;48.10;;;;;;5087160;28;20289;-64
2022/05/20 13:02:43;;;;;;;;;;;21.50;49.00;;;;;;5078529;28;19931;-65
2022/05/20 13:05:27;;;;;;;;;;;21.40;49.80;;;;;;5091998;28;19920;-66
2022/05/20 13:07:54;;;;;;;;;;;21.20;50.20;;;;;;5072108;28;20062;-65
2022/05/20 13:10:34;;;;;;;;;;;21.00;51.60;;;;;;5088777;28;19945;-64
2022/05/20 13:13:04;;;;;;;;;;;20.90;52.30;;;;;;5088541;28;19924;-66
2022/05/20 13:15:30;;;;;;;;;;;20.70;50.90;;;;;;5088701;28;19928;-64
2022/05/20 13:17:58;;;;;;;;;;;20.60;51.50;;;;;;5088763;28;19924;-64
2022/05/20 13:20:25;;;;;;;;;;;20.50;52.70;;;;;;5083673;28;19924;-65
2022/05/20 13:22:51;;;;;;;;;;;20.50;53.20;;;;;;5073065;28;19966;-64
2022/05/20 13:25:17;;;;;;;;;;;20.40;53.50;;;;;;5093406;28;20036;-64
2022/05/20 13:27:44;;;;;;;;;;;20.30;55.10;;;;;;5084305;28;20287;-64
2022/05/20 13:30:11;;;;;;;;;;;20.30;54.40;;;;;;5092344;28;20484;-64
2022/05/20 13:32:37;;;;;;;;;;;20.20;55.30;;;;;;5088977;28;19920;-64
2022/05/20 13:35:03;;;;;;;;;;;20.00;56.10;;;;;;5080887;28;20375;-64
2022/05/20 13:37:36;;;;;;;;;;;19.90;57.40;;;;;;5079068;28;19924;-65
2022/05/20 13:40:09;;;;;;;;;;;19.80;58.00;;;;;;5081473;28;20013;-65
2022/05/20 13:42:34;;;;;;;;;;;19.70;59.10;;;;;;5079859;28;19931;-65
2022/05/20 13:45:05;;;;;;;;;;;19.70;60.40;;;;;;5094154;28;19924;-65
2022/05/20 13:50:15;;;;;;;;;;;19.40;63.70;;;;;;5082946;28;19951;-64
2022/05/20 13:52:44;;;;;;;;;;;19.00;66.60;;;;;;5083698;28;19924;-66
2022/05/20 13:55:12;;;;;;;;;;;18.50;71.90;;;;;;5087009;28;20354;-65
2022/05/20 13:57:56;;;;;;;;;;;18.10;74.40;;;;;;5087327;28;19943;-66
2022/05/20 14:00:27;;;;;;;;;;;17.80;75.10;;;;;;5081369;28;19956;-65
2022/05/20 14:02:55;;;;;;;;;;;17.30;82.30;;;;;;5092766;28;19941;-65
2022/05/20 14:05:23;;;;;;;;;;;16.90;88.00;;;;;;5081568;28;20292;-65
2022/05/20 14:07:53;;;;;;;;;;;16.60;91.50;;;;;;5084279;28;19920;-65
2022/05/20 14:10:27;;;;;;;;;;;16.40;92.40;;;;;;5090376;28;20025;-65
2022/05/20 14:12:54;;;;;;;;;;;16.30;96.30;;;;;;5074998;28;19920;-65
2022/05/20 14:15:29;;;;;;;;;;;16.30;98.10;;;;;;5086844;28;20387;-65
2022/05/20 14:17:55;;;;;;;;;;;16.30;99.90;;;;;;5087283;28;20002;-65
2022/05/20 14:20:21;;;;;;;;;;;16.30;99.90;;;;;;5077446;28;19928;-66
2022/05/20 14:22:48;;;;;;;;;;;16.20;99.90;;;;;;5093898;28;20053;-67
2022/05/20 14:25:36;;;;;;;;;;;16.30;99.90;;;;;;5092043;28;19995;-67
2022/05/20 14:28:17;;;;;;;;;;;16.20;99.90;;;;;;5074503;28;20670;-67
2022/05/20 14:30:43;;;;;;;;;;;16.20;99.90;;;;;;5073186;28;20062;-67
2022/05/20 14:33:09;;;;;;;;;;;16.20;99.90;;;;;;5072981;28;20681;-66
2022/05/20 14:35:41;;;;;;;;;;;16.10;99.90;;;;;;5076684;28;19924;-67
2022/05/20 14:38:11;;;;;;;;;;;16.10;99.90;;;;;;5079922;28;19920;-69
2022/05/20 14:40:37;;;;;;;;;;;16.00;99.90;;;;;;5078250;28;19939;-69
2022/05/20 14:43:06;;;;;;;;;;;15.90;99.90;;;;;;5083271;28;19920;-68
2022/05/20 14:45:34;;;;;;;;;;;15.80;99.90;;;;;;5082703;28;19924;-67
2022/05/20 14:48:01;;;;;;;;;;;15.90;99.90;;;;;;5073757;28;19920;-67
2022/05/20 14:50:27;;;;;;;;;;;15.80;99.90;;;;;;5079028;28;19924;-66
2022/05/20 14:52:54;;;;;;;;;;;15.70;99.90;;;;;;5085293;28;19920;-66
2022/05/20 14:55:40;;;;;;;;;;;15.70;99.90;;;;;;5091597;28;20272;-67
2022/05/20 14:58:11;;;;;;;;;;;16.20;99.90;;;;;;5088173;28;19924;-67
2022/05/20 15:00:56;;;;;;;;;;;15.90;99.90;;;;;;5094168;28;20419;-66
2022/05/20 15:03:22;;;;;;;;;;;15.40;99.90;;;;;;5080070;28;19940;-68